Cruz Bay, VI

9:11 AM AST on March 03, 2015 (GMT -0400)
Great Cruz Bay, St John | Change Station
CLOSE
Current Station
Personal Weather Station
Location: St John, VI
Elevation: 59 ft
Nearby Weather Stations

Elev 59 ft 18.33 °N, 64.79 °W | Updated 7 seconds ago

Clear
Clear
74.6 °F
Feels Like 75 °F
N
11.0
Wind Variable Wind from East
Gusts 12.0 mph

Today
High -- | Low -- °F
--% Chance of Precip.
Yesterday
High -- | Low -- °F
Precip. -- in
6:36 AM 6:25 PM
Waxing Gibbous, 96% visible
Pressure 30.04 in
Visibility 10.0 miles
Clouds Clear
Heat Index 75 °F
Dew Point 68 °F
Humidity 80%
Rainfall 0.09 in
Snow Depth Not available.
UV 1 out of 12
Pollen Not available.
Air Quality Not available.
Flu Activity Not available.
METAR TISX 031153Z 06008KT 10SM CLR 26/19 A3004 RMK AO2 SLP170 70002 T02560194 10256 20222 53015

More Conditions Fewer Conditions

Pressure 30.04 in
Visibility 10.0 miles
Clouds Clear
Heat Index 75 °F
Dew Point 68 °F
Humidity 80%
Rainfall 0.09 in
Snow Depth Not available.
UV 1 out of 12
Pollen Not available.
Air Quality Not available.
Flu Activity Not available.
METAR TISX 031153Z 06008KT 10SM CLR 26/19 A3004 RMK AO2 SLP170 70002 T02560194 10256 20222 53015

More Conditions Fewer Conditions

10-Day Weather Forecast

Almanac

Astronomy

Mar. 03, 2015 Rise Set
Actual Time
Civil Twilight
Nautical Twilight
Astronomical Twilight
Moon
Length of Visible Light
Length of Day
Tomorrow will be .
, % of the Moon is Illuminated

Today's Extremes

State Highs State Lows

Community

WunderPhotos

Upload Photos

1,802,099 photos uploaded!

WunderBlogs® & News

Nearby

Air Quality

  Air Quality AQ Index Pollutant
Not available.

Snow Depth

Station Depth Elevation

Earthquake Activity

City Distance Mag. Time & Date
Minimum magnitude displayed is 2.5.

Coastal Water Temperatures

Place Temperature

Nearby Weather Stations